Time;durP1;ratioP1;P1;durP2;ratioP2;P2;SDS_P1;SDS_P2;PMS_P1;PMS_P2;Temp;Humidity;BMP_temperature;BMP_pressure;BME280_temperature;BME280_humidity;BME280_pressure;Samples;Min_cycle;Max_cycle;Signal;HPM_P1;HPM_P2
2022/08/25 00:01:58;;;;;;;6.75;3.30;;;;;;;;;;6104564;23;20041;-83
2022/08/25 00:04:34;;;;;;;6.35;3.50;;;;;;;;;;6093547;23;20026;-83
2022/08/25 00:07:04;;;;;;;5.93;3.63;;;;;;;;;;6126900;23;20033;-82
2022/08/25 00:09:33;;;;;;;5.00;2.88;;;;;;;;;;6129457;23;20504;-83
2022/08/25 00:12:06;;;;;;;5.57;3.35;;;;;;;;;;6128265;23;20066;-83
2022/08/25 00:14:38;;;;;;;6.97;3.30;;;;;;;;;;6105810;23;20018;-83
2022/08/25 00:17:06;;;;;;;6.38;3.50;;;;;;;;;;6175596;23;20063;-83
2022/08/25 00:19:36;;;;;;;5.47;3.30;;;;;;;;;;6195368;23;20044;-83
2022/08/25 00:22:08;;;;;;;8.05;3.35;;;;;;;;;;6183639;23;20024;-83
2022/08/25 00:24:36;;;;;;;5.85;3.35;;;;;;;;;;6219818;23;20496;-83
2022/08/25 00:27:05;;;;;;;7.25;3.25;;;;;;;;;;6220921;23;20027;-84
2022/08/25 00:29:38;;;;;;;6.93;3.40;;;;;;;;;;6220120;23;20389;-84
2022/08/25 00:32:12;;;;;;;7.18;3.45;;;;;;;;;;6219648;23;20024;-84
2022/08/25 00:34:40;;;;;;;6.25;3.88;;;;;;;;;;6220351;23;20026;-83
2022/08/25 00:37:09;;;;;;;7.03;3.55;;;;;;;;;;6219497;23;20031;-83
2022/08/25 00:39:38;;;;;;;7.90;3.42;;;;;;;;;;6193778;23;20020;-83
2022/08/25 00:42:09;;;;;;;8.93;3.05;;;;;;;;;;6219543;23;20017;-83
2022/08/25 00:44:42;;;;;;;7.80;3.50;;;;;;;;;;6220043;23;20401;-83
2022/08/25 00:47:10;;;;;;;7.57;3.40;;;;;;;;;;6184874;23;20052;-83
2022/08/25 00:50:05;;;;;;;5.55;3.50;;;;;;;;;;6200434;23;20013;-83
2022/08/25 00:52:43;;;;;;;8.40;3.20;;;;;;;;;;6197286;23;20459;-84
2022/08/25 00:55:22;;;;;;;6.20;3.25;;;;;;;;;;6221562;23;20048;-83
2022/08/25 00:58:24;;;;;;;7.30;3.58;;;;;;;;;;6200864;23;20020;-83
2022/08/25 01:00:55;;;;;;;11.20;3.63;;;;;;;;;;6220349;23;20043;-83
2022/08/25 01:03:46;;;;;;;5.95;3.33;;;;;;;;;;6189673;23;20031;-83
2022/08/25 01:06:14;;;;;;;12.13;3.70;;;;;;;;;;6220614;23;20453;-83
2022/08/25 01:08:42;;;;;;;7.45;3.40;;;;;;;;;;6220362;23;20040;-83
2022/08/25 01:11:11;;;;;;;8.35;3.83;;;;;;;;;;6221140;23;20104;-83
2022/08/25 01:13:44;;;;;;;6.38;3.35;;;;;;;;;;6194696;23;20063;-84
2022/08/25 01:16:14;;;;;;;5.30;3.45;;;;;;;;;;6219182;23;20021;-84
2022/08/25 01:18:47;;;;;;;6.35;3.08;;;;;;;;;;6184524;23;20028;-83
2022/08/25 01:21:16;;;;;;;8.43;3.65;;;;;;;;;;6219149;23;20028;-83
2022/08/25 01:23:46;;;;;;;6.88;3.58;;;;;;;;;;6209186;23;20111;-83
2022/08/25 01:26:36;;;;;;;9.93;3.70;;;;;;;;;;6212926;23;20013;-83
2022/08/25 01:29:19;;;;;;;9.40;3.63;;;;;;;;;;6223563;23;20024;-83
2022/08/25 01:31:48;;;;;;;5.50;3.47;;;;;;;;;;6196848;23;20032;-83
2022/08/25 01:34:18;;;;;;;8.80;3.35;;;;;;;;;;6210993;23;20024;-83
2022/08/25 01:36:47;;;;;;;6.57;3.42;;;;;;;;;;6222606;23;20020;-83
2022/08/25 01:39:40;;;;;;;9.55;3.70;;;;;;;;;;6211507;23;20071;-84
2022/08/25 01:42:22;;;;;;;8.38;3.63;;;;;;;;;;6223196;23;20044;-83
2022/08/25 01:44:54;;;;;;;6.78;3.50;;;;;;;;;;6196975;23;20016;-83
2022/08/25 01:47:23;;;;;;;8.15;3.90;;;;;;;;;;6221568;23;20066;-84
2022/08/25 01:50:14;;;;;;;5.63;3.38;;;;;;;;;;6222040;23;20016;-83
2022/08/25 02:12:03;;;;;;;5.50;3.25;;;;;;;;;;6219468;23;20099;-85
2022/08/25 02:38:31;;;;;;;8.15;3.42;;;;;;;;;;6160781;23;20028;-84
2022/08/25 02:41:14;;;;;;;7.32;3.25;;;;;;;;;;6151826;23;20136;-83
2022/08/25 02:44:07;;;;;;;7.00;3.67;;;;;;;;;;6161863;23;20027;-83
2022/08/25 02:46:35;;;;;;;5.45;3.70;;;;;;;;;;6171166;23;20025;-83
2022/08/25 02:49:03;;;;;;;6.82;3.78;;;;;;;;;;6162524;23;20052;-84
2022/08/25 02:51:30;;;;;;;9.10;3.70;;;;;;;;;;6224362;23;20048;-84
2022/08/25 03:27:12;;;;;;;5.63;3.80;;;;;;;;;;6221597;23;20032;-83
2022/08/25 03:29:45;;;;;;;6.40;3.92;;;;;;;;;;6177153;23;20025;-83
2022/08/25 03:32:12;;;;;;;7.35;3.42;;;;;;;;;;6223972;23;20089;-83
2022/08/25 03:34:41;;;;;;;7.32;3.80;;;;;;;;;;6222453;23;20040;-83
2022/08/25 03:37:08;;;;;;;6.35;3.50;;;;;;;;;;6223956;23;20020;-83
2022/08/25 03:39:42;;;;;;;7.40;3.85;;;;;;;;;;6224153;23;20020;-83
2022/08/25 03:42:11;;;;;;;5.88;3.80;;;;;;;;;;6222939;23;20031;-83
2022/08/25 03:44:44;;;;;;;6.43;3.85;;;;;;;;;;6223276;23;20035;-83
2022/08/25 03:47:12;;;;;;;8.13;4.50;;;;;;;;;;6198474;23;20084;-83
2022/08/25 03:49:45;;;;;;;6.32;3.70;;;;;;;;;;6222272;23;20016;-83
2022/08/25 03:52:19;;;;;;;6.22;3.60;;;;;;;;;;6187690;23;20068;-83
2022/08/25 03:54:46;;;;;;;8.90;3.63;;;;;;;;;;6223938;23;20012;-84
2022/08/25 03:57:39;;;;;;;5.75;3.45;;;;;;;;;;6223756;23;20447;-83
2022/08/25 04:00:13;;;;;;;8.07;3.45;;;;;;;;;;6188024;23;20044;-83
2022/08/25 04:02:40;;;;;;;5.68;3.58;;;;;;;;;;6221040;23;20027;-83
2022/08/25 04:05:33;;;;;;;8.93;3.90;;;;;;;;;;6223075;23;20008;-83
2022/08/25 04:08:24;;;;;;;7.35;3.47;;;;;;;;;;6223246;23;20015;-83
2022/08/25 04:10:57;;;;;;;7.70;3.85;;;;;;;;;;6200854;23;20044;-83
2022/08/25 04:13:50;;;;;;;5.93;3.60;;;;;;;;;;6187054;23;20017;-83
2022/08/25 04:16:40;;;;;;;6.93;3.60;;;;;;;;;;6222965;23;20013;-84
2022/08/25 04:19:09;;;;;;;4.95;3.47;;;;;;;;;;6225383;23;20031;-83
2022/08/25 04:21:42;;;;;;;8.13;4.03;;;;;;;;;;6220314;23;20072;-83
2022/08/25 04:24:11;;;;;;;8.18;3.90;;;;;;;;;;6207470;23;20021;-82
2022/08/25 04:26:42;;;;;;;7.63;4.30;;;;;;;;;;6207010;23;20024;-83
2022/08/25 04:29:34;;;;;;;7.40;3.42;;;;;;;;;;6224337;23;20142;-83
2022/08/25 04:32:07;;;;;;;6.47;3.53;;;;;;;;;;6218557;23;20437;-83
2022/08/25 04:34:36;;;;;;;10.32;4.22;;;;;;;;;;6216250;23;20021;-84
2022/08/25 04:37:06;;;;;;;7.38;3.88;;;;;;;;;;6218046;23;20047;-84
2022/08/25 04:39:38;;;;;;;9.00;4.15;;;;;;;;;;6217287;23;20460;-85
2022/08/25 04:42:20;;;;;;;5.13;3.80;;;;;;;;;;6195118;23;20345;-84
2022/08/25 04:44:48;;;;;;;6.68;3.88;;;;;;;;;;6191631;23;20037;-86
2022/08/25 04:47:38;;;;;;;5.57;3.90;;;;;;;;;;6194818;23;20471;-84
2022/08/25 04:50:50;;;;;;;6.22;3.78;;;;;;;;;;6217706;23;20016;-85
2022/08/25 04:53:22;;;;;;;11.63;4.40;;;;;;;;;;6216620;23;20112;-85
2022/08/25 04:56:53;;;;;;;8.90;4.20;;;;;;;;;;6209971;23;20021;-86
2022/08/25 05:00:28;;;;;;;6.10;3.75;;;;;;;;;;6212220;23;20008;-85
2022/08/25 05:13:12;;;;;;;10.93;5.55;;;;;;;;;;6050881;23;20022;-81
2022/08/25 05:15:58;;;;;;;10.57;6.28;;;;;;;;;;6016924;23;20032;-81
2022/08/25 05:18:31;;;;;;;11.30;6.90;;;;;;;;;;6033522;23;20134;-82
2022/08/25 05:21:25;;;;;;;11.68;6.90;;;;;;;;;;6010963;23;20123;-81
2022/08/25 05:23:59;;;;;;;14.10;7.78;;;;;;;;;;6062653;23;20031;-82
2022/08/25 05:26:50;;;;;;;10.20;6.88;;;;;;;;;;6041305;23;20016;-83
2022/08/25 05:29:18;;;;;;;12.20;7.88;;;;;;;;;;6056480;23;20191;-83
2022/08/25 05:31:46;;;;;;;14.63;8.02;;;;;;;;;;6060385;23;20071;-82
2022/08/25 05:34:18;;;;;;;12.05;7.53;;;;;;;;;;6084630;23;20031;-82
2022/08/25 05:37:10;;;;;;;12.48;7.95;;;;;;;;;;6125943;23;20014;-83
2022/08/25 05:39:38;;;;;;;17.60;8.30;;;;;;;;;;6119131;23;20053;-83
2022/08/25 05:42:06;;;;;;;15.07;7.97;;;;;;;;;;6248159;23;20112;-83
2022/08/25 05:45:00;;;;;;;16.60;8.20;;;;;;;;;;6231481;23;20036;-81
2022/08/25 05:47:39;;;;;;;14.68;8.57;;;;;;;;;;6235087;23;20404;-81
2022/08/25 05:50:32;;;;;;;15.43;8.55;;;;;;;;;;6218361;23;20007;-83
2022/08/25 05:53:26;;;;;;;17.38;9.55;;;;;;;;;;6238523;23;20005;-81
2022/08/25 05:56:00;;;;;;;17.05;8.32;;;;;;;;;;6241522;23;20028;-81
2022/08/25 05:58:59;;;;;;;16.83;9.63;;;;;;;;;;6229524;23;20025;-82
2022/08/25 06:04:16;;;;;;;17.95;9.20;;;;;;;;;;6214437;23;20027;-82
2022/08/25 06:06:52;;;;;;;17.58;9.55;;;;;;;;;;6239015;23;20020;-82
2022/08/25 06:09:21;;;;;;;17.75;10.90;;;;;;;;;;6247317;23;20012;-81
2022/08/25 06:11:54;;;;;;;22.65;11.82;;;;;;;;;;6247170;23;20068;-81
2022/08/25 06:14:23;;;;;;;17.92;9.88;;;;;;;;;;6245137;23;20035;-82
2022/08/25 06:16:56;;;;;;;17.67;10.35;;;;;;;;;;6237400;23;20040;-81
2022/08/25 06:19:29;;;;;;;20.70;11.02;;;;;;;;;;6217796;23;20013;-81
2022/08/25 06:22:04;;;;;;;18.70;11.35;;;;;;;;;;6203395;23;20038;-81
2022/08/25 06:24:33;;;;;;;24.45;12.50;;;;;;;;;;6228854;23;20036;-81
2022/08/25 06:27:00;;;;;;;18.48;10.60;;;;;;;;;;6232695;23;20021;-82
2022/08/25 06:29:33;;;;;;;18.00;9.90;;;;;;;;;;6210674;23;20100;-82
2022/08/25 06:32:08;;;;;;;19.65;10.65;;;;;;;;;;6202200;23;20031;-81
2022/08/25 06:34:36;;;;;;;14.95;10.25;;;;;;;;;;6231280;23;20032;-81
2022/08/25 06:37:04;;;;;;;18.92;9.85;;;;;;;;;;6218765;23;20000;-81
2022/08/25 06:39:38;;;;;;;16.42;9.50;;;;;;;;;;6218682;23;20027;-81
2022/08/25 06:42:15;;;;;;;15.63;10.10;;;;;;;;;;6206878;23;20059;-83
2022/08/25 06:53:39;;;;;;;16.55;10.00;;;;;;;;;;6294251;22;20035;-84
2022/08/25 06:56:18;;;;;;;17.08;10.15;;;;;;;;;;6278562;22;20031;-83
2022/08/25 06:58:53;;;;;;;18.70;9.82;;;;;;;;;;6243601;22;20087;-83
2022/08/25 07:01:25;;;;;;;18.27;9.55;;;;;;;;;;6305168;22;20031;-84
2022/08/25 07:04:46;;;;;;;16.83;9.95;;;;;;;;;;6240939;23;20028;-84
2022/08/25 07:07:43;;;;;;;15.75;10.02;;;;;;;;;;6300294;22;20033;-84
2022/08/25 07:10:29;;;;;;;17.45;9.63;;;;;;;;;;6275893;22;20083;-83
2022/08/25 07:13:01;;;;;;;15.77;10.15;;;;;;;;;;6272613;22;20015;-83
2022/08/25 07:15:38;;;;;;;14.13;9.38;;;;;;;;;;6296240;22;20023;-83
2022/08/25 07:18:07;;;;;;;16.05;9.18;;;;;;;;;;6267493;22;20101;-83
2022/08/25 07:20:42;;;;;;;15.57;9.63;;;;;;;;;;6247361;22;20035;-84
2022/08/25 07:23:11;;;;;;;16.45;10.35;;;;;;;;;;6268993;22;20018;-83
2022/08/25 07:25:47;;;;;;;13.65;9.27;;;;;;;;;;6292606;22;20026;-83
2022/08/25 07:28:21;;;;;;;14.93;10.27;;;;;;;;;;6277411;22;20016;-83
2022/08/25 07:30:50;;;;;;;14.85;9.45;;;;;;;;;;6301598;22;20019;-82
2022/08/25 07:33:18;;;;;;;14.70;8.70;;;;;;;;;;6302914;22;20111;-83
2022/08/25 07:35:53;;;;;;;12.70;8.25;;;;;;;;;;6275460;22;20042;-83
2022/08/25 07:38:23;;;;;;;17.73;9.10;;;;;;;;;;6275249;22;20174;-84
2022/08/25 07:41:33;;;;;;;12.77;8.18;;;;;;;;;;6255042;22;20042;-84
2022/08/25 07:45:18;;;;;;;14.20;8.50;;;;;;;;;;6273853;22;20028;-84
2022/08/25 07:48:05;;;;;;;17.20;8.98;;;;;;;;;;6258822;22;20035;-83
2022/08/25 07:50:50;;;;;;;12.48;8.00;;;;;;;;;;6275865;22;20446;-84
2022/08/25 07:53:26;;;;;;;13.90;8.65;;;;;;;;;;6240133;22;20070;-85
2022/08/25 07:56:01;;;;;;;16.20;8.75;;;;;;;;;;6276093;22;20028;-84
2022/08/25 07:58:37;;;;;;;14.95;9.00;;;;;;;;;;6241208;22;20023;-82
2022/08/25 08:01:22;;;;;;;14.48;9.23;;;;;;;;;;6275214;22;20126;-84
2022/08/25 08:04:10;;;;;;;14.50;7.75;;;;;;;;;;6276176;22;20024;-83
2022/08/25 08:07:03;;;;;;;12.80;8.45;;;;;;;;;;6274720;22;20017;-84
2022/08/25 08:09:38;;;;;;;15.68;9.02;;;;;;;;;;6303014;22;20015;-84
2022/08/25 08:12:21;;;;;;;17.48;9.50;;;;;;;;;;6277794;22;20016;-84
2022/08/25 08:21:37;;;;;;;12.90;8.50;;;;;;;;;;6216638;23;20056;-96
2022/08/25 08:37:27;;;;;;;12.68;8.10;;;;;;;;;;6190065;23;20019;-92
2022/08/25 08:42:15;;;;;;;15.25;8.75;;;;;;;;;;6172545;23;20025;-92
2022/08/25 08:49:22;;;;;;;14.32;9.15;;;;;;;;;;6064695;23;20122;-96
2022/08/25 08:52:15;;;;;;;17.27;9.68;;;;;;;;;;6071019;23;20034;-96
2022/08/25 08:54:47;;;;;;;14.93;9.60;;;;;;;;;;6091027;23;20027;-96
2022/08/25 08:57:54;;;;;;;17.35;10.23;;;;;;;;;;6129150;23;20386;-96
2022/08/25 09:01:00;;;;;;;14.75;10.70;;;;;;;;;;6070951;23;20018;-96
2022/08/25 09:04:20;;;;;;;14.38;10.73;;;;;;;;;;6087840;23;20055;-95
2022/08/25 09:11:46;;;;;;;;;;;;;;;;;;;;;
2022/08/25 09:18:53;;;;;;;16.02;10.20;;;;;;;;;;4975044;27;20443;-83
2022/08/25 09:21:36;;;;;;;15.07;10.02;;;;;;;;;;4985298;28;20061;-85
2022/08/25 09:35:57;;;;;;;14.15;8.23;;;;;;;;;;5024432;28;20078;-83
2022/08/25 09:41:48;;;;;;;8.05;6.35;;;;;;;;;;5023116;28;20504;-83
2022/08/25 09:44:44;;;;;;;10.95;5.88;;;;;;;;;;5017433;28;20049;-84
2022/08/25 09:47:26;;;;;;;12.52;5.32;;;;;;;;;;5006144;28;20060;-83
2022/08/25 09:50:00;;;;;;;8.95;5.30;;;;;;;;;;5027423;28;20092;-84
2022/08/25 09:52:36;;;;;;;7.47;4.82;;;;;;;;;;5024234;28;20046;-84
2022/08/25 09:55:14;;;;;;;10.18;3.92;;;;;;;;;;5023919;28;20068;-85
2022/08/25 09:58:24;;;;;;;6.88;3.50;;;;;;;;;;5027850;28;20395;-85
2022/08/25 10:01:31;;;;;;;9.35;3.88;;;;;;;;;;4990206;28;20674;-84
2022/08/25 10:04:05;;;;;;;9.98;4.53;;;;;;;;;;5021625;28;20050;-85
2022/08/25 10:06:49;;;;;;;6.60;3.60;;;;;;;;;;5017646;28;20076;-84
2022/08/25 10:09:33;;;;;;;5.78;3.15;;;;;;;;;;5003943;28;20124;-84
2022/08/25 10:12:39;;;;;;;7.57;3.42;;;;;;;;;;5002384;28;20029;-85
2022/08/25 10:15:32;;;;;;;6.00;3.15;;;;;;;;;;5030278;28;20049;-84
2022/08/25 10:18:25;;;;;;;7.38;3.47;;;;;;;;;;4973195;28;20128;-84
2022/08/25 10:21:06;;;;;;;6.40;3.22;;;;;;;;;;4971882;28;20388;-84
2022/08/25 10:23:47;;;;;;;6.90;3.00;;;;;;;;;;5021004;28;20044;-83
2022/08/25 10:26:38;;;;;;;5.82;2.75;;;;;;;;;;5025064;28;20080;-81
2022/08/25 10:29:27;;;;;;;7.30;3.08;;;;;;;;;;5028095;28;20038;-83
2022/08/25 10:32:53;;;;;;;10.68;3.83;;;;;;;;;;5019631;28;20106;-83
2022/08/25 10:35:30;;;;;;;7.72;3.10;;;;;;;;;;4922549;29;20044;-83
2022/08/25 10:38:37;;;;;;;7.60;3.13;;;;;;;;;;4931399;29;20043;-86
2022/08/25 10:42:05;;;;;;;6.53;3.15;;;;;;;;;;4912126;29;20067;-85
2022/08/25 10:49:03;;;;;;;6.00;3.65;;;;;;;;;;4927456;29;20040;-84
2022/08/25 10:52:03;;;;;;;5.63;3.63;;;;;;;;;;4880659;29;20091;-85
2022/08/25 10:55:11;;;;;;;6.88;3.30;;;;;;;;;;4895855;29;20395;-84
2022/08/25 10:58:02;;;;;;;5.50;2.60;;;;;;;;;;4893168;29;20056;-85
2022/08/25 11:00:48;;;;;;;4.97;2.90;;;;;;;;;;4900191;29;20121;-81
2022/08/25 11:03:34;;;;;;;7.88;3.28;;;;;;;;;;4882576;29;20044;-82
2022/08/25 11:06:16;;;;;;;10.45;2.67;;;;;;;;;;4887936;29;20554;-82
2022/08/25 11:09:11;;;;;;;;;;;;;;;;;;4895589;29;20072;-83
2022/08/25 11:11:53;;;;;;;9.93;3.70;;;;;;;;;;4919106;29;19970;-84
2022/08/25 11:14:37;;;;;;;7.22;2.65;;;;;;;;;;4951765;28;20058;-83
2022/08/25 11:17:23;;;;;;;8.63;2.80;;;;;;;;;;4950793;28;20054;-84
2022/08/25 11:26:14;;;;;;;6.32;2.65;;;;;;;;;;4857639;29;20060;-83
2022/08/25 11:29:44;;;;;;;6.10;2.60;;;;;;;;;;4894607;29;20139;-83
2022/08/25 11:32:24;;;;;;;6.20;2.70;;;;;;;;;;4873711;29;20052;-83
2022/08/25 11:35:38;;;;;;;6.43;2.97;;;;;;;;;;4898976;29;20144;-83
2022/08/25 11:38:42;;;;;;;5.75;3.05;;;;;;;;;;4885276;29;20060;-83
2022/08/25 11:41:36;;;;;;;10.77;2.67;;;;;;;;;;4900095;29;20056;-83
2022/08/25 11:44:57;;;;;;;5.82;2.35;;;;;;;;;;4880920;29;20063;-83
2022/08/25 11:48:05;;;;;;;7.22;2.65;;;;;;;;;;4900271;29;20044;-83
2022/08/25 11:51:06;;;;;;;5.88;2.70;;;;;;;;;;4896941;29;20087;-83
2022/08/25 11:56:36;;;;;;;5.25;2.42;;;;;;;;;;4945089;28;20165;-83
2022/08/25 11:59:09;;;;;;;7.50;2.70;;;;;;;;;;4954955;28;20063;-83
2022/08/25 12:01:42;;;;;;;7.50;2.80;;;;;;;;;;4949663;28;20046;-83
2022/08/25 12:04:26;;;;;;;4.90;2.13;;;;;;;;;;4956743;28;20054;-83
2022/08/25 12:07:09;;;;;;;6.70;2.50;;;;;;;;;;4993873;28;20133;-83
2022/08/25 12:09:52;;;;;;;8.03;2.60;;;;;;;;;;4975264;28;20042;-83
2022/08/25 12:12:40;;;;;;;10.70;2.97;;;;;;;;;;5006909;28;20323;-83
2022/08/25 12:15:30;;;;;;;7.28;2.88;;;;;;;;;;5007593;28;20041;-83
2022/08/25 12:18:21;;;;;;;6.10;2.72;;;;;;;;;;4987909;28;20042;-83
2022/08/25 12:20:51;;;;;;;7.57;2.55;;;;;;;;;;5005546;28;20088;-83
2022/08/25 12:23:31;;;;;;;5.38;2.42;;;;;;;;;;5006171;28;20057;-83
2022/08/25 12:26:07;;;;;;;6.43;2.50;;;;;;;;;;5009436;28;20113;-82
2022/08/25 12:28:50;;;;;;;7.35;2.88;;;;;;;;;;5012839;28;20045;-83
2022/08/25 12:31:57;;;;;;;5.45;2.28;;;;;;;;;;5007721;28;20060;-83
2022/08/25 12:34:38;;;;;;;6.35;2.38;;;;;;;;;;4943855;28;20059;-83
2022/08/25 12:37:31;;;;;;;3.75;2.20;;;;;;;;;;4964515;28;20352;-83
2022/08/25 12:40:01;;;;;;;4.60;2.25;;;;;;;;;;4958481;28;20097;-83
2022/08/25 12:42:46;;;;;;;7.40;2.60;;;;;;;;;;4959469;28;20069;-83
2022/08/25 12:45:47;;;;;;;3.95;2.40;;;;;;;;;;4955513;28;20058;-83
2022/08/25 12:48:26;;;;;;;8.98;2.88;;;;;;;;;;4927615;28;20068;-83
2022/08/25 12:51:03;;;;;;;9.83;2.63;;;;;;;;;;4957165;28;22212;-83
2022/08/25 12:53:39;;;;;;;6.05;2.55;;;;;;;;;;4960200;28;20146;-83
2022/08/25 12:56:20;;;;;;;5.95;2.88;;;;;;;;;;4959755;28;20042;-83
2022/08/25 12:59:12;;;;;;;5.05;2.60;;;;;;;;;;4954298;28;20048;-83
2022/08/25 13:02:00;;;;;;;4.80;2.30;;;;;;;;;;4946250;28;20082;-83
2022/08/25 13:04:56;;;;;;;5.35;2.35;;;;;;;;;;4963822;28;20051;-82
2022/08/25 13:07:48;;;;;;;8.80;2.58;;;;;;;;;;4965128;28;20057;-83
2022/08/25 13:10:23;;;;;;;5.50;2.45;;;;;;;;;;4931281;28;20518;-83
2022/08/25 13:13:20;;;;;;;10.07;2.73;;;;;;;;;;4936677;28;20063;-83
2022/08/25 13:16:00;;;;;;;7.03;2.60;;;;;;;;;;4935951;28;20198;-83
2022/08/25 13:18:31;;;;;;;5.55;2.65;;;;;;;;;;4935695;29;20183;-83
2022/08/25 13:21:17;;;;;;;5.03;2.65;;;;;;;;;;4941851;28;20063;-83
2022/08/25 13:23:51;;;;;;;6.63;2.45;;;;;;;;;;4928525;28;20054;-83
2022/08/25 13:26:32;;;;;;;10.45;2.70;;;;;;;;;;4928498;28;20054;-83
2022/08/25 13:29:28;;;;;;;5.30;2.10;;;;;;;;;;4937965;28;20080;-83
2022/08/25 13:32:08;;;;;;;4.57;2.35;;;;;;;;;;4936961;28;20052;-83
2022/08/25 13:34:46;;;;;;;5.97;2.28;;;;;;;;;;4923315;29;20141;-83
2022/08/25 13:37:29;;;;;;;5.35;2.30;;;;;;;;;;4936983;28;20047;-83
2022/08/25 13:40:24;;;;;;;8.20;2.50;;;;;;;;;;4923354;28;20914;-82
2022/08/25 13:43:18;;;;;;;4.43;2.10;;;;;;;;;;4935725;28;20265;-83
2022/08/25 13:46:21;;;;;;;4.78;2.58;;;;;;;;;;4955864;28;20525;-83
2022/08/25 13:48:49;;;;;;;5.35;2.40;;;;;;;;;;5021698;28;20078;-83
2022/08/25 13:51:26;;;;;;;6.10;2.22;;;;;;;;;;5021646;28;21357;-83
2022/08/25 13:54:05;;;;;;;7.53;2.58;;;;;;;;;;5023038;28;20049;-83
2022/08/25 13:56:39;;;;;;;4.10;2.30;;;;;;;;;;5022388;28;20065;-84
2022/08/25 13:59:28;;;;;;;8.10;2.88;;;;;;;;;;5001082;28;20057;-83
2022/08/25 14:01:58;;;;;;;6.65;2.63;;;;;;;;;;5006846;28;20084;-83
2022/08/25 14:04:50;;;;;;;5.10;2.50;;;;;;;;;;5025951;28;20038;-84
2022/08/25 14:07:34;;;;;;;6.82;2.50;;;;;;;;;;5027966;28;20064;-82
2022/08/25 14:10:09;;;;;;;5.97;2.67;;;;;;;;;;5027759;28;20056;-84
2022/08/25 14:12:47;;;;;;;5.43;2.67;;;;;;;;;;5000922;28;20148;-84
2022/08/25 14:15:16;;;;;;;7.03;2.55;;;;;;;;;;5022114;28;20037;-84
2022/08/25 14:18:05;;;;;;;6.78;2.58;;;;;;;;;;4985203;28;20040;-84
2022/08/25 14:20:59;;;;;;;4.50;2.35;;;;;;;;;;5005853;28;20042;-84
2022/08/25 14:23:55;;;;;;;5.00;2.40;;;;;;;;;;5024838;28;20034;-84
2022/08/25 14:26:52;;;;;;;9.15;2.65;;;;;;;;;;5006750;28;20049;-84
2022/08/25 14:30:55;;;;;;;5.55;2.70;;;;;;;;;;5014833;28;20049;-83
2022/08/25 14:34:31;;;;;;;5.72;2.80;;;;;;;;;;5023678;28;20049;-83
2022/08/25 14:37:00;;;;;;;5.32;2.63;;;;;;;;;;4991329;28;20087;-83
2022/08/25 14:39:28;;;;;;;6.22;2.47;;;;;;;;;;5013330;28;20052;-83
2022/08/25 14:42:01;;;;;;;5.30;2.90;;;;;;;;;;4982246;28;20073;-83
2022/08/25 14:44:28;;;;;;;6.43;2.83;;;;;;;;;;5013649;28;20042;-83
2022/08/25 14:46:58;;;;;;;6.47;2.90;;;;;;;;;;4992559;28;20096;-83
2022/08/25 14:49:34;;;;;;;7.72;3.05;;;;;;;;;;4992837;28;20046;-84
2022/08/25 14:52:25;;;;;;;4.82;2.38;;;;;;;;;;5013417;28;20037;-83
2022/08/25 14:54:52;;;;;;;4.47;2.55;;;;;;;;;;4980276;28;20104;-83
2022/08/25 14:57:44;;;;;;;4.25;2.55;;;;;;;;;;5005206;28;20324;-83
2022/08/25 15:00:12;;;;;;;9.25;2.78;;;;;;;;;;5012507;28;20042;-83
2022/08/25 15:02:45;;;;;;;5.25;2.88;;;;;;;;;;5007927;28;20705;-82
2022/08/25 15:05:23;;;;;;;6.30;3.10;;;;;;;;;;4991319;28;20107;-83
2022/08/25 15:11:42;;;;;;;6.47;3.00;;;;;;;;;;4987474;28;20216;-85
2022/08/25 15:52:30;;;;;;;9.95;2.67;;;;;;;;;;4999355;28;20049;-86
2022/08/25 15:55:17;;;;;;;6.47;2.75;;;;;;;;;;4990655;28;20053;-86
2022/08/25 15:58:11;;;;;;;7.35;2.80;;;;;;;;;;5012170;28;20093;-84
2022/08/25 16:00:45;;;;;;;5.47;2.70;;;;;;;;;;4994201;28;20045;-83
2022/08/25 16:03:31;;;;;;;6.93;3.00;;;;;;;;;;5000431;28;20045;-88
2022/08/25 16:06:02;;;;;;;5.63;2.60;;;;;;;;;;4999685;28;20061;-85
2022/08/25 16:09:08;;;;;;;4.80;2.72;;;;;;;;;;5023864;28;20034;-86
2022/08/25 16:13:26;;;;;;;7.60;2.60;;;;;;;;;;4950876;28;20086;-84
2022/08/25 16:16:51;;;;;;;4.63;2.90;;;;;;;;;;4822326;29;20261;-84
2022/08/25 16:19:34;;;;;;;11.25;3.08;;;;;;;;;;4798540;29;20066;-84
2022/08/25 16:25:57;;;;;;;6.50;2.72;;;;;;;;;;4829774;29;20116;-84
2022/08/25 16:28:40;;;;;;;7.57;2.78;;;;;;;;;;4799344;29;20046;-84
2022/08/25 16:31:26;;;;;;;7.10;3.20;;;;;;;;;;4828783;29;20130;-83
2022/08/25 16:33:55;;;;;;;6.88;2.80;;;;;;;;;;4849118;29;20058;-83
2022/08/25 16:36:24;;;;;;;7.28;2.90;;;;;;;;;;4837131;29;20058;-83
2022/08/25 16:38:56;;;;;;;6.97;2.90;;;;;;;;;;4832334;29;20043;-83
2022/08/25 16:41:33;;;;;;;8.65;2.88;;;;;;;;;;4832393;29;20050;-83
2022/08/25 16:44:07;;;;;;;7.18;3.58;;;;;;;;;;4891269;29;20059;-83
2022/08/25 16:46:40;;;;;;;6.47;2.97;;;;;;;;;;4888601;29;20075;-83
2022/08/25 16:49:12;;;;;;;6.22;2.88;;;;;;;;;;4926888;29;20494;-83
2022/08/25 16:51:42;;;;;;;8.20;2.85;;;;;;;;;;4928195;29;20047;-82
2022/08/25 16:57:02;;;;;;;5.63;3.05;;;;;;;;;;5017840;28;20109;-82
2022/08/25 16:59:54;;;;;;;7.03;3.10;;;;;;;;;;5015878;28;20038;-83
2022/08/25 17:02:22;;;;;;;6.22;2.90;;;;;;;;;;4992844;28;20061;-83
2022/08/25 17:04:50;;;;;;;5.80;2.90;;;;;;;;;;5015238;28;20054;-83
2022/08/25 17:07:19;;;;;;;9.10;3.42;;;;;;;;;;5016862;28;20070;-83
2022/08/25 17:09:51;;;;;;;4.97;2.83;;;;;;;;;;5015929;28;20038;-83
2022/08/25 17:12:21;;;;;;;8.02;3.72;;;;;;;;;;5008868;28;20053;-83
2022/08/25 17:15:12;;;;;;;6.88;3.00;;;;;;;;;;5016709;28;20025;-83
2022/08/25 17:17:40;;;;;;;6.82;3.03;;;;;;;;;;4978846;28;20046;-83
2022/08/25 17:21:03;;;;;;;5.38;2.67;;;;;;;;;;4986837;28;20137;-83
2022/08/25 17:23:31;;;;;;;7.03;3.10;;;;;;;;;;5013723;28;20045;-83
2022/08/25 17:26:24;;;;;;;7.25;3.40;;;;;;;;;;4996498;28;20022;-83
2022/08/25 17:28:59;;;;;;;7.32;3.20;;;;;;;;;;4989527;28;20103;-83
2022/08/25 17:37:42;;;;;;;6.28;3.03;;;;;;;;;;5013719;28;20038;-82
2022/08/25 17:40:17;;;;;;;7.35;2.92;;;;;;;;;;5021203;28;20048;-83
2022/08/25 17:42:44;;;;;;;6.80;3.00;;;;;;;;;;5014737;28;20041;-82
2022/08/25 17:45:12;;;;;;;8.30;2.75;;;;;;;;;;4997060;28;20058;-82
2022/08/25 17:47:40;;;;;;;4.60;2.80;;;;;;;;;;5015782;28;20076;-82
2022/08/25 17:50:08;;;;;;;5.25;3.20;;;;;;;;;;5001542;28;20111;-82
2022/08/25 17:52:36;;;;;;;7.25;3.45;;;;;;;;;;4998519;28;20045;-82
2022/08/25 17:55:10;;;;;;;8.83;2.80;;;;;;;;;;5017077;28;20072;-82
2022/08/25 17:57:38;;;;;;;4.88;3.10;;;;;;;;;;5020175;28;20052;-82
2022/08/25 18:00:12;;;;;;;6.38;2.97;;;;;;;;;;5015043;28;20038;-82
2022/08/25 18:02:42;;;;;;;5.80;3.47;;;;;;;;;;4994724;28;20038;-82
2022/08/25 18:05:11;;;;;;;5.72;2.90;;;;;;;;;;4990049;28;20048;-82
2022/08/25 18:07:39;;;;;;;5.75;3.30;;;;;;;;;;4991265;28;20069;-83
2022/08/25 18:10:12;;;;;;;6.37;3.30;;;;;;;;;;4987886;28;20038;-83
2022/08/25 18:12:41;;;;;;;10.85;3.33;;;;;;;;;;4986326;28;20120;-83
2022/08/25 18:15:15;;;;;;;7.37;3.33;;;;;;;;;;4971504;28;20609;-83
2022/08/25 18:17:42;;;;;;;5.00;3.05;;;;;;;;;;4955544;28;20089;-83
2022/08/25 18:20:13;;;;;;;7.25;3.13;;;;;;;;;;4997945;28;20049;-83
2022/08/25 18:22:46;;;;;;;7.60;3.17;;;;;;;;;;4957420;28;20575;-83
2022/08/25 18:25:15;;;;;;;8.77;2.95;;;;;;;;;;4990138;28;20145;-83
2022/08/25 18:28:08;;;;;;;6.65;2.90;;;;;;;;;;4989228;28;20046;-83
2022/08/25 18:30:37;;;;;;;7.00;2.45;;;;;;;;;;5005670;28;20042;-83
2022/08/25 18:33:05;;;;;;;14.20;3.83;;;;;;;;;;4986893;28;20660;-83
2022/08/25 18:35:38;;;;;;;8.77;3.20;;;;;;;;;;5006734;28;20567;-83
2022/08/25 18:41:04;;;;;;;5.68;2.90;;;;;;;;;;4971884;28;20506;-83
2022/08/25 18:43:33;;;;;;;6.38;2.97;;;;;;;;;;4988529;28;20050;-84
2022/08/25 18:46:03;;;;;;;9.68;2.92;;;;;;;;;;4971187;28;20828;-83
2022/08/25 18:48:31;;;;;;;6.93;2.95;;;;;;;;;;4970812;28;21006;-83
2022/08/25 18:51:00;;;;;;;8.82;3.28;;;;;;;;;;5001425;28;20145;-83
2022/08/25 18:53:31;;;;;;;7.75;2.80;;;;;;;;;;4978542;28;20788;-83
2022/08/25 18:56:17;;;;;;;8.05;3.13;;;;;;;;;;5004987;28;20042;-83
2022/08/25 18:58:51;;;;;;;9.23;2.75;;;;;;;;;;4990665;28;20041;-83
2022/08/25 19:01:44;;;;;;;8.65;3.30;;;;;;;;;;4988489;28;20053;-83
2022/08/25 19:04:13;;;;;;;6.60;3.00;;;;;;;;;;5005960;28;20897;-83
2022/08/25 19:06:43;;;;;;;6.80;2.97;;;;;;;;;;4987294;28;20046;-84
2022/08/25 19:09:14;;;;;;;7.68;3.58;;;;;;;;;;4980386;28;20120;-83
2022/08/25 19:11:51;;;;;;;12.63;3.55;;;;;;;;;;5005896;28;20050;-83
2022/08/25 19:14:25;;;;;;;7.13;3.20;;;;;;;;;;5007284;28;20065;-83
2022/08/25 19:16:53;;;;;;;8.48;3.33;;;;;;;;;;4986863;28;20092;-83
2022/08/25 19:19:23;;;;;;;7.40;3.15;;;;;;;;;;5005422;28;20036;-83
2022/08/25 19:22:27;;;;;;;9.60;2.97;;;;;;;;;;4995415;28;20050;-83
2022/08/25 19:25:13;;;;;;;8.38;3.50;;;;;;;;;;5001994;28;20159;-83
2022/08/25 19:27:42;;;;;;;12.43;3.70;;;;;;;;;;4987245;28;20053;-83
2022/08/25 19:30:23;;;;;;;8.18;3.30;;;;;;;;;;4986974;28;20063;-83
2022/08/25 19:33:01;;;;;;;11.57;3.35;;;;;;;;;;4988000;28;20057;-84
2022/08/25 19:35:46;;;;;;;6.07;3.50;;;;;;;;;;4990334;28;20048;-84
2022/08/25 19:38:31;;;;;;;11.98;3.50;;;;;;;;;;4985816;28;20408;-84
2022/08/25 19:41:04;;;;;;;10.43;3.40;;;;;;;;;;5007463;28;20046;-84
2022/08/25 19:43:43;;;;;;;12.32;3.67;;;;;;;;;;5006331;28;20100;-84